sensor_id;sensor_type;location;lat;lon;timestamp;P1;durP1;ratioP1;P2;durP2;ratioP2
4921;SDS011;16625;53.624;10.106;2023-11-19T00:02:26;12.33;;;7.23;;
4921;SDS011;16625;53.624;10.106;2023-11-19T00:04:53;13.97;;;7.27;;
4921;SDS011;16625;53.624;10.106;2023-11-19T00:07:19;13.10;;;7.60;;
4921;SDS011;16625;53.624;10.106;2023-11-19T00:09:46;10.73;;;6.33;;
4921;SDS011;16625;53.624;10.106;2023-11-19T00:12:13;11.07;;;6.37;;
4921;SDS011;16625;53.624;10.106;2023-11-19T00:14:40;8.10;;;6.17;;
4921;SDS011;16625;53.624;10.106;2023-11-19T00:17:07;9.40;;;6.00;;
4921;SDS011;16625;53.624;10.106;2023-11-19T00:19:35;11.67;;;6.90;;
4921;SDS011;16625;53.624;10.106;2023-11-19T00:22:02;9.87;;;6.30;;
4921;SDS011;16625;53.624;10.106;2023-11-19T00:24:29;9.60;;;6.37;;
4921;SDS011;16625;53.624;10.106;2023-11-19T00:26:56;10.23;;;5.73;;
4921;SDS011;16625;53.624;10.106;2023-11-19T00:29:23;10.93;;;6.47;;
4921;SDS011;16625;53.624;10.106;2023-11-19T00:31:50;9.13;;;6.43;;
4921;SDS011;16625;53.624;10.106;2023-11-19T00:34:17;10.23;;;6.83;;
4921;SDS011;16625;53.624;10.106;2023-11-19T00:36:48;7.67;;;4.80;;
4921;SDS011;16625;53.624;10.106;2023-11-19T00:39:15;6.80;;;5.17;;
4921;SDS011;16625;53.624;10.106;2023-11-19T00:41:42;8.00;;;5.30;;
4921;SDS011;16625;53.624;10.106;2023-11-19T00:44:11;9.27;;;5.87;;
4921;SDS011;16625;53.624;10.106;2023-11-19T00:46:38;7.43;;;5.70;;
4921;SDS011;16625;53.624;10.106;2023-11-19T00:49:05;10.80;;;5.50;;
4921;SDS011;16625;53.624;10.106;2023-11-19T00:51:32;7.60;;;4.90;;
4921;SDS011;16625;53.624;10.106;2023-11-19T00:54:00;6.47;;;4.60;;
4921;SDS011;16625;53.624;10.106;2023-11-19T00:56:27;5.80;;;3.77;;
4921;SDS011;16625;53.624;10.106;2023-11-19T00:58:54;5.27;;;4.30;;
4921;SDS011;16625;53.624;10.106;2023-11-19T01:01:22;6.40;;;4.40;;
4921;SDS011;16625;53.624;10.106;2023-11-19T01:03:49;6.10;;;4.30;;
4921;SDS011;16625;53.624;10.106;2023-11-19T01:06:26;4.33;;;3.77;;
4921;SDS011;16625;53.624;10.106;2023-11-19T01:08:53;5.33;;;3.33;;
4921;SDS011;16625;53.624;10.106;2023-11-19T01:11:23;4.07;;;3.33;;
4921;SDS011;16625;53.624;10.106;2023-11-19T01:13:50;4.40;;;4.00;;
4921;SDS011;16625;53.624;10.106;2023-11-19T01:16:17;4.40;;;3.13;;
4921;SDS011;16625;53.624;10.106;2023-11-19T01:18:46;5.13;;;4.17;;
4921;SDS011;16625;53.624;10.106;2023-11-19T01:21:13;5.57;;;3.70;;
4921;SDS011;16625;53.624;10.106;2023-11-19T01:23:40;4.23;;;3.43;;
4921;SDS011;16625;53.624;10.106;2023-11-19T01:26:08;4.33;;;3.40;;
4921;SDS011;16625;53.624;10.106;2023-11-19T01:28:38;7.70;;;3.33;;
4921;SDS011;16625;53.624;10.106;2023-11-19T01:31:10;3.80;;;3.40;;
4921;SDS011;16625;53.624;10.106;2023-11-19T01:33:37;4.10;;;3.30;;
4921;SDS011;16625;53.624;10.106;2023-11-19T01:36:05;5.70;;;3.50;;
4921;SDS011;16625;53.624;10.106;2023-11-19T01:38:33;4.90;;;3.30;;
4921;SDS011;16625;53.624;10.106;2023-11-19T01:40:59;3.80;;;3.03;;
4921;SDS011;16625;53.624;10.106;2023-11-19T01:43:32;3.50;;;2.60;;
4921;SDS011;16625;53.624;10.106;2023-11-19T01:46:01;3.50;;;3.10;;
4921;SDS011;16625;53.624;10.106;2023-11-19T01:48:28;3.20;;;2.80;;
4921;SDS011;16625;53.624;10.106;2023-11-19T01:50:56;3.60;;;3.10;;
4921;SDS011;16625;53.624;10.106;2023-11-19T01:53:23;3.20;;;2.80;;
4921;SDS011;16625;53.624;10.106;2023-11-19T01:55:50;3.50;;;3.10;;
4921;SDS011;16625;53.624;10.106;2023-11-19T01:58:18;4.13;;;3.10;;
4921;SDS011;16625;53.624;10.106;2023-11-19T02:00:45;3.13;;;2.83;;
4921;SDS011;16625;53.624;10.106;2023-11-19T02:03:14;3.13;;;2.67;;
4921;SDS011;16625;53.624;10.106;2023-11-19T02:05:42;3.53;;;2.70;;
4921;SDS011;16625;53.624;10.106;2023-11-19T02:08:09;2.83;;;2.57;;
4921;SDS011;16625;53.624;10.106;2023-11-19T02:10:35;2.53;;;2.33;;
4921;SDS011;16625;53.624;10.106;2023-11-19T02:13:03;2.83;;;2.47;;
4921;SDS011;16625;53.624;10.106;2023-11-19T02:15:31;2.90;;;2.60;;
4921;SDS011;16625;53.624;10.106;2023-11-19T02:20:48;2.13;;;1.90;;
4921;SDS011;16625;53.624;10.106;2023-11-19T02:23:15;3.00;;;2.67;;
4921;SDS011;16625;53.624;10.106;2023-11-19T02:25:42;3.17;;;1.80;;
4921;SDS011;16625;53.624;10.106;2023-11-19T02:28:16;2.60;;;2.10;;
4921;SDS011;16625;53.624;10.106;2023-11-19T02:30:43;2.27;;;2.00;;
4921;SDS011;16625;53.624;10.106;2023-11-19T02:33:10;2.50;;;2.13;;
4921;SDS011;16625;53.624;10.106;2023-11-19T02:35:37;2.70;;;2.27;;
4921;SDS011;16625;53.624;10.106;2023-11-19T02:38:05;3.07;;;2.47;;
4921;SDS011;16625;53.624;10.106;2023-11-19T02:40:33;2.97;;;2.47;;
4921;SDS011;16625;53.624;10.106;2023-11-19T02:43:00;2.63;;;1.90;;
4921;SDS011;16625;53.624;10.106;2023-11-19T02:45:31;2.43;;;2.23;;
4921;SDS011;16625;53.624;10.106;2023-11-19T02:47:58;3.47;;;2.50;;
4921;SDS011;16625;53.624;10.106;2023-11-19T02:50:26;2.73;;;2.50;;
4921;SDS011;16625;53.624;10.106;2023-11-19T02:52:54;2.60;;;2.10;;
4921;SDS011;16625;53.624;10.106;2023-11-19T02:55:22;3.23;;;2.60;;
4921;SDS011;16625;53.624;10.106;2023-11-19T02:57:50;2.67;;;2.47;;
4921;SDS011;16625;53.624;10.106;2023-11-19T03:00:18;2.23;;;1.80;;
4921;SDS011;16625;53.624;10.106;2023-11-19T03:02:50;2.27;;;2.07;;
4921;SDS011;16625;53.624;10.106;2023-11-19T03:05:24;2.77;;;2.40;;
4921;SDS011;16625;53.624;10.106;2023-11-19T03:07:55;2.60;;;2.40;;
4921;SDS011;16625;53.624;10.106;2023-11-19T03:10:22;3.33;;;3.03;;
4921;SDS011;16625;53.624;10.106;2023-11-19T03:12:49;3.87;;;2.80;;
4921;SDS011;16625;53.624;10.106;2023-11-19T03:15:16;3.47;;;2.80;;
4921;SDS011;16625;53.624;10.106;2023-11-19T03:17:43;2.80;;;2.47;;
4921;SDS011;16625;53.624;10.106;2023-11-19T03:20:12;3.30;;;3.00;;
4921;SDS011;16625;53.624;10.106;2023-11-19T03:22:41;2.60;;;2.40;;
4921;SDS011;16625;53.624;10.106;2023-11-19T03:25:09;2.80;;;2.60;;
4921;SDS011;16625;53.624;10.106;2023-11-19T03:27:36;3.57;;;2.90;;
4921;SDS011;16625;53.624;10.106;2023-11-19T03:30:04;3.00;;;2.70;;
4921;SDS011;16625;53.624;10.106;2023-11-19T03:32:31;4.97;;;3.00;;
4921;SDS011;16625;53.624;10.106;2023-11-19T03:34:59;7.23;;;2.67;;
4921;SDS011;16625;53.624;10.106;2023-11-19T03:37:28;3.53;;;2.97;;
4921;SDS011;16625;53.624;10.106;2023-11-19T03:39:57;3.60;;;3.30;;
4921;SDS011;16625;53.624;10.106;2023-11-19T03:42:25;3.10;;;2.80;;
4921;SDS011;16625;53.624;10.106;2023-11-19T03:44:52;4.00;;;3.43;;
4921;SDS011;16625;53.624;10.106;2023-11-19T03:47:19;5.20;;;3.13;;
4921;SDS011;16625;53.624;10.106;2023-11-19T03:49:47;3.83;;;3.30;;
4921;SDS011;16625;53.624;10.106;2023-11-19T03:52:15;3.37;;;3.00;;
4921;SDS011;16625;53.624;10.106;2023-11-19T03:54:43;3.80;;;3.33;;
4921;SDS011;16625;53.624;10.106;2023-11-19T03:57:11;4.13;;;2.90;;
4921;SDS011;16625;53.624;10.106;2023-11-19T03:59:38;3.40;;;3.10;;
4921;SDS011;16625;53.624;10.106;2023-11-19T04:02:05;4.00;;;3.03;;
4921;SDS011;16625;53.624;10.106;2023-11-19T04:04:32;5.50;;;4.20;;
4921;SDS011;16625;53.624;10.106;2023-11-19T04:07:00;3.87;;;3.27;;
4921;SDS011;16625;53.624;10.106;2023-11-19T04:09:28;5.67;;;3.47;;
4921;SDS011;16625;53.624;10.106;2023-11-19T04:11:56;4.40;;;3.33;;
4921;SDS011;16625;53.624;10.106;2023-11-19T04:14:23;4.03;;;3.50;;
4921;SDS011;16625;53.624;10.106;2023-11-19T04:16:50;3.97;;;3.60;;
4921;SDS011;16625;53.624;10.106;2023-11-19T04:19:17;4.67;;;3.87;;
4921;SDS011;16625;53.624;10.106;2023-11-19T04:21:44;5.10;;;3.90;;
4921;SDS011;16625;53.624;10.106;2023-11-19T04:24:12;7.10;;;5.07;;
4921;SDS011;16625;53.624;10.106;2023-11-19T04:26:40;5.00;;;3.93;;
4921;SDS011;16625;53.624;10.106;2023-11-19T04:29:11;5.33;;;3.80;;
4921;SDS011;16625;53.624;10.106;2023-11-19T04:31:38;4.70;;;4.20;;
4921;SDS011;16625;53.624;10.106;2023-11-19T04:34:05;4.73;;;4.07;;
4921;SDS011;16625;53.624;10.106;2023-11-19T04:36:32;6.93;;;5.00;;
4921;SDS011;16625;53.624;10.106;2023-11-19T04:39:00;6.37;;;5.10;;
4921;SDS011;16625;53.624;10.106;2023-11-19T04:41:27;6.80;;;4.10;;
4921;SDS011;16625;53.624;10.106;2023-11-19T04:43:55;5.57;;;4.60;;
4921;SDS011;16625;53.624;10.106;2023-11-19T04:46:24;4.53;;;3.83;;
4921;SDS011;16625;53.624;10.106;2023-11-19T04:48:51;6.13;;;4.50;;
4921;SDS011;16625;53.624;10.106;2023-11-19T04:51:18;5.10;;;4.50;;
4921;SDS011;16625;53.624;10.106;2023-11-19T04:53:45;7.73;;;5.00;;
4921;SDS011;16625;53.624;10.106;2023-11-19T04:56:11;5.57;;;4.90;;
4921;SDS011;16625;53.624;10.106;2023-11-19T04:58:40;10.80;;;5.97;;
4921;SDS011;16625;53.624;10.106;2023-11-19T05:01:13;9.20;;;5.33;;
4921;SDS011;16625;53.624;10.106;2023-11-19T05:03:43;10.30;;;5.20;;
4921;SDS011;16625;53.624;10.106;2023-11-19T05:06:11;5.80;;;4.70;;
4921;SDS011;16625;53.624;10.106;2023-11-19T05:08:38;8.07;;;5.87;;
4921;SDS011;16625;53.624;10.106;2023-11-19T05:11:05;8.40;;;5.73;;
4921;SDS011;16625;53.624;10.106;2023-11-19T05:13:32;12.17;;;7.57;;
4921;SDS011;16625;53.624;10.106;2023-11-19T05:16:01;10.03;;;6.57;;
4921;SDS011;16625;53.624;10.106;2023-11-19T05:18:28;14.13;;;7.23;;
4921;SDS011;16625;53.624;10.106;2023-11-19T05:20:57;10.90;;;7.77;;
4921;SDS011;16625;53.624;10.106;2023-11-19T05:23:24;12.80;;;7.20;;
4921;SDS011;16625;53.624;10.106;2023-11-19T05:25:50;12.20;;;7.90;;
4921;SDS011;16625;53.624;10.106;2023-11-19T05:28:17;15.10;;;7.63;;
4921;SDS011;16625;53.624;10.106;2023-11-19T05:30:44;16.30;;;9.00;;
4921;SDS011;16625;53.624;10.106;2023-11-19T05:33:11;14.20;;;8.87;;
4921;SDS011;16625;53.624;10.106;2023-11-19T05:35:38;13.33;;;8.50;;
4921;SDS011;16625;53.624;10.106;2023-11-19T05:38:07;12.10;;;7.97;;
4921;SDS011;16625;53.624;10.106;2023-11-19T05:40:34;14.30;;;8.70;;
4921;SDS011;16625;53.624;10.106;2023-11-19T05:43:03;14.93;;;9.50;;
4921;SDS011;16625;53.624;10.106;2023-11-19T05:45:31;14.90;;;9.93;;
4921;SDS011;16625;53.624;10.106;2023-11-19T05:47:58;21.13;;;9.23;;
4921;SDS011;16625;53.624;10.106;2023-11-19T05:50:25;16.10;;;9.33;;
4921;SDS011;16625;53.624;10.106;2023-11-19T05:52:53;18.10;;;9.60;;
4921;SDS011;16625;53.624;10.106;2023-11-19T05:55:21;16.83;;;9.10;;
4921;SDS011;16625;53.624;10.106;2023-11-19T05:57:49;14.20;;;9.60;;
4921;SDS011;16625;53.624;10.106;2023-11-19T06:00:17;16.47;;;10.37;;
4921;SDS011;16625;53.624;10.106;2023-11-19T06:02:44;18.70;;;9.77;;
4921;SDS011;16625;53.624;10.106;2023-11-19T06:05:11;19.07;;;9.80;;
4921;SDS011;16625;53.624;10.106;2023-11-19T06:07:38;16.43;;;9.00;;
4921;SDS011;16625;53.624;10.106;2023-11-19T06:10:06;18.17;;;8.50;;
4921;SDS011;16625;53.624;10.106;2023-11-19T06:12:36;15.70;;;9.00;;
4921;SDS011;16625;53.624;10.106;2023-11-19T06:15:07;17.90;;;11.07;;
4921;SDS011;16625;53.624;10.106;2023-11-19T06:17:34;16.53;;;10.10;;
4921;SDS011;16625;53.624;10.106;2023-11-19T06:20:01;18.80;;;10.47;;
4921;SDS011;16625;53.624;10.106;2023-11-19T06:22:30;21.23;;;10.03;;
4921;SDS011;16625;53.624;10.106;2023-11-19T06:24:57;18.43;;;10.50;;
4921;SDS011;16625;53.624;10.106;2023-11-19T06:27:25;18.63;;;11.13;;
4921;SDS011;16625;53.624;10.106;2023-11-19T06:29:53;18.80;;;9.87;;
4921;SDS011;16625;53.624;10.106;2023-11-19T06:32:21;25.17;;;10.53;;
4921;SDS011;16625;53.624;10.106;2023-11-19T06:34:47;21.57;;;10.00;;
4921;SDS011;16625;53.624;10.106;2023-11-19T06:37:14;22.43;;;10.50;;
4921;SDS011;16625;53.624;10.106;2023-11-19T06:39:42;25.00;;;12.40;;
4921;SDS011;16625;53.624;10.106;2023-11-19T06:42:09;22.97;;;11.93;;
4921;SDS011;16625;53.624;10.106;2023-11-19T06:44:36;30.60;;;11.87;;
4921;SDS011;16625;53.624;10.106;2023-11-19T06:47:04;29.33;;;11.73;;
4921;SDS011;16625;53.624;10.106;2023-11-19T06:49:31;26.20;;;13.60;;
4921;SDS011;16625;53.624;10.106;2023-11-19T06:51:58;38.50;;;13.10;;
4921;SDS011;16625;53.624;10.106;2023-11-19T06:54:25;34.03;;;13.67;;
4921;SDS011;16625;53.624;10.106;2023-11-19T06:56:52;49.17;;;13.10;;
4921;SDS011;16625;53.624;10.106;2023-11-19T06:59:19;38.53;;;12.97;;
4921;SDS011;16625;53.624;10.106;2023-11-19T07:01:46;34.77;;;14.30;;
4921;SDS011;16625;53.624;10.106;2023-11-19T07:04:15;35.43;;;13.67;;
4921;SDS011;16625;53.624;10.106;2023-11-19T07:06:42;49.40;;;13.60;;
4921;SDS011;16625;53.624;10.106;2023-11-19T07:09:09;31.07;;;12.90;;
4921;SDS011;16625;53.624;10.106;2023-11-19T07:11:37;39.60;;;13.03;;
4921;SDS011;16625;53.624;10.106;2023-11-19T07:14:04;47.00;;;12.80;;
4921;SDS011;16625;53.624;10.106;2023-11-19T07:16:32;48.10;;;14.13;;
4921;SDS011;16625;53.624;10.106;2023-11-19T07:18:59;32.57;;;11.30;;
4921;SDS011;16625;53.624;10.106;2023-11-19T07:21:27;28.87;;;10.20;;
4921;SDS011;16625;53.624;10.106;2023-11-19T07:23:55;48.30;;;12.37;;
4921;SDS011;16625;53.624;10.106;2023-11-19T07:26:22;39.10;;;12.30;;
4921;SDS011;16625;53.624;10.106;2023-11-19T07:28:50;30.37;;;10.57;;
4921;SDS011;16625;53.624;10.106;2023-11-19T07:31:17;33.87;;;10.50;;
4921;SDS011;16625;53.624;10.106;2023-11-19T07:33:45;35.20;;;10.33;;
4921;SDS011;16625;53.624;10.106;2023-11-19T07:36:12;45.57;;;11.03;;
4921;SDS011;16625;53.624;10.106;2023-11-19T07:38:41;46.07;;;11.53;;
4921;SDS011;16625;53.624;10.106;2023-11-19T07:41:08;26.40;;;8.07;;
4921;SDS011;16625;53.624;10.106;2023-11-19T07:43:37;34.43;;;8.47;;
4921;SDS011;16625;53.624;10.106;2023-11-19T07:46:05;42.83;;;8.00;;
4921;SDS011;16625;53.624;10.106;2023-11-19T07:48:37;31.10;;;7.63;;
4921;SDS011;16625;53.624;10.106;2023-11-19T07:51:05;41.60;;;7.60;;
4921;SDS011;16625;53.624;10.106;2023-11-19T07:53:33;32.30;;;8.10;;
4921;SDS011;16625;53.624;10.106;2023-11-19T07:56:05;23.80;;;6.93;;
4921;SDS011;16625;53.624;10.106;2023-11-19T07:58:33;46.27;;;7.03;;
4921;SDS011;16625;53.624;10.106;2023-11-19T08:01:01;38.77;;;7.40;;
4921;SDS011;16625;53.624;10.106;2023-11-19T08:03:28;37.87;;;6.40;;
4921;SDS011;16625;53.624;10.106;2023-11-19T08:05:55;23.37;;;6.93;;
4921;SDS011;16625;53.624;10.106;2023-11-19T08:08:23;20.90;;;5.07;;
4921;SDS011;16625;53.624;10.106;2023-11-19T08:10:50;40.10;;;6.87;;
4921;SDS011;16625;53.624;10.106;2023-11-19T08:13:19;48.03;;;8.50;;
4921;SDS011;16625;53.624;10.106;2023-11-19T08:15:46;27.23;;;6.20;;
4921;SDS011;16625;53.624;10.106;2023-11-19T08:18:13;61.27;;;7.80;;
4921;SDS011;16625;53.624;10.106;2023-11-19T08:20:40;44.90;;;7.10;;
4921;SDS011;16625;53.624;10.106;2023-11-19T08:23:09;44.70;;;7.17;;
4921;SDS011;16625;53.624;10.106;2023-11-19T08:25:36;24.53;;;6.67;;
4921;SDS011;16625;53.624;10.106;2023-11-19T08:28:03;46.83;;;6.80;;
4921;SDS011;16625;53.624;10.106;2023-11-19T08:30:32;58.87;;;7.20;;
4921;SDS011;16625;53.624;10.106;2023-11-19T08:32:59;42.03;;;6.90;;
4921;SDS011;16625;53.624;10.106;2023-11-19T08:35:27;33.20;;;7.13;;
4921;SDS011;16625;53.624;10.106;2023-11-19T08:37:55;45.33;;;7.30;;
4921;SDS011;16625;53.624;10.106;2023-11-19T08:40:22;50.60;;;7.40;;
4921;SDS011;16625;53.624;10.106;2023-11-19T08:42:50;54.60;;;8.17;;
4921;SDS011;16625;53.624;10.106;2023-11-19T08:45:17;19.30;;;5.47;;
4921;SDS011;16625;53.624;10.106;2023-11-19T08:47:45;23.53;;;6.17;;
4921;SDS011;16625;53.624;10.106;2023-11-19T08:50:12;32.33;;;6.67;;
4921;SDS011;16625;53.624;10.106;2023-11-19T08:52:39;39.07;;;7.53;;
4921;SDS011;16625;53.624;10.106;2023-11-19T08:55:06;45.23;;;7.67;;
4921;SDS011;16625;53.624;10.106;2023-11-19T08:57:35;46.97;;;7.00;;
4921;SDS011;16625;53.624;10.106;2023-11-19T09:00:02;48.83;;;7.57;;
4921;SDS011;16625;53.624;10.106;2023-11-19T09:02:32;29.57;;;6.13;;
4921;SDS011;16625;53.624;10.106;2023-11-19T09:05:01;32.03;;;7.57;;
4921;SDS011;16625;53.624;10.106;2023-11-19T09:07:28;32.53;;;6.47;;
4921;SDS011;16625;53.624;10.106;2023-11-19T09:09:55;42.13;;;6.93;;
4921;SDS011;16625;53.624;10.106;2023-11-19T09:12:22;38.40;;;7.00;;
4921;SDS011;16625;53.624;10.106;2023-11-19T09:14:49;48.83;;;7.70;;
4921;SDS011;16625;53.624;10.106;2023-11-19T09:17:17;33.23;;;5.70;;
4921;SDS011;16625;53.624;10.106;2023-11-19T09:19:44;44.30;;;7.70;;
4921;SDS011;16625;53.624;10.106;2023-11-19T09:22:12;41.30;;;7.93;;
4921;SDS011;16625;53.624;10.106;2023-11-19T09:24:41;48.50;;;7.20;;
4921;SDS011;16625;53.624;10.106;2023-11-19T09:27:09;51.37;;;6.77;;
4921;SDS011;16625;53.624;10.106;2023-11-19T09:29:36;29.93;;;7.30;;
4921;SDS011;16625;53.624;10.106;2023-11-19T09:32:03;37.83;;;6.93;;
4921;SDS011;16625;53.624;10.106;2023-11-19T09:34:31;54.30;;;7.00;;
4921;SDS011;16625;53.624;10.106;2023-11-19T09:36:58;37.50;;;6.27;;
4921;SDS011;16625;53.624;10.106;2023-11-19T09:39:26;30.33;;;6.30;;
4921;SDS011;16625;53.624;10.106;2023-11-19T09:41:54;49.73;;;6.83;;
4921;SDS011;16625;53.624;10.106;2023-11-19T09:44:20;35.03;;;6.73;;
4921;SDS011;16625;53.624;10.106;2023-11-19T09:46:47;44.13;;;6.63;;
4921;SDS011;16625;53.624;10.106;2023-11-19T09:49:15;40.00;;;7.00;;
4921;SDS011;16625;53.624;10.106;2023-11-19T09:51:48;38.93;;;7.47;;
4921;SDS011;16625;53.624;10.106;2023-11-19T09:54:15;37.23;;;6.10;;
4921;SDS011;16625;53.624;10.106;2023-11-19T09:56:44;62.10;;;9.93;;
4921;SDS011;16625;53.624;10.106;2023-11-19T09:59:12;39.63;;;9.17;;
4921;SDS011;16625;53.624;10.106;2023-11-19T10:01:39;33.47;;;4.90;;
4921;SDS011;16625;53.624;10.106;2023-11-19T10:04:06;21.70;;;5.00;;
4921;SDS011;16625;53.624;10.106;2023-11-19T10:06:35;28.03;;;7.00;;
4921;SDS011;16625;53.624;10.106;2023-11-19T10:09:02;34.80;;;6.47;;
4921;SDS011;16625;53.624;10.106;2023-11-19T10:11:30;45.83;;;8.00;;
4921;SDS011;16625;53.624;10.106;2023-11-19T10:13:58;27.70;;;6.33;;
4921;SDS011;16625;53.624;10.106;2023-11-19T10:16:28;28.80;;;5.70;;
4921;SDS011;16625;53.624;10.106;2023-11-19T10:18:56;27.17;;;5.93;;
4921;SDS011;16625;53.624;10.106;2023-11-19T10:21:23;35.43;;;6.30;;
4921;SDS011;16625;53.624;10.106;2023-11-19T10:23:53;38.67;;;6.50;;
4921;SDS011;16625;53.624;10.106;2023-11-19T10:26:22;34.97;;;5.70;;
4921;SDS011;16625;53.624;10.106;2023-11-19T10:28:49;34.57;;;6.37;;
4921;SDS011;16625;53.624;10.106;2023-11-19T10:31:18;18.13;;;5.60;;
4921;SDS011;16625;53.624;10.106;2023-11-19T10:33:50;29.13;;;6.47;;
4921;SDS011;16625;53.624;10.106;2023-11-19T10:36:17;21.37;;;4.10;;
4921;SDS011;16625;53.624;10.106;2023-11-19T10:38:51;42.83;;;9.03;;
4921;SDS011;16625;53.624;10.106;2023-11-19T10:41:28;30.13;;;4.83;;
4921;SDS011;16625;53.624;10.106;2023-11-19T10:43:57;30.27;;;6.37;;
4921;SDS011;16625;53.624;10.106;2023-11-19T10:46:37;18.20;;;6.00;;
4921;SDS011;16625;53.624;10.106;2023-11-19T10:49:05;22.10;;;6.03;;
4921;SDS011;16625;53.624;10.106;2023-11-19T10:51:32;29.80;;;6.43;;
4921;SDS011;16625;53.624;10.106;2023-11-19T10:54:02;28.30;;;5.90;;
4921;SDS011;16625;53.624;10.106;2023-11-19T10:56:31;38.47;;;7.57;;
4921;SDS011;16625;53.624;10.106;2023-11-19T10:58:58;29.17;;;7.37;;
4921;SDS011;16625;53.624;10.106;2023-11-19T11:01:26;28.20;;;5.93;;
4921;SDS011;16625;53.624;10.106;2023-11-19T11:04:02;40.83;;;7.13;;
4921;SDS011;16625;53.624;10.106;2023-11-19T11:06:31;46.00;;;6.07;;
4921;SDS011;16625;53.624;10.106;2023-11-19T11:09:00;46.33;;;7.13;;
4921;SDS011;16625;53.624;10.106;2023-11-19T11:11:27;27.63;;;5.40;;
4921;SDS011;16625;53.624;10.106;2023-11-19T11:13:55;23.33;;;4.23;;
4921;SDS011;16625;53.624;10.106;2023-11-19T11:16:25;32.40;;;5.57;;
4921;SDS011;16625;53.624;10.106;2023-11-19T11:18:52;36.70;;;6.67;;
4921;SDS011;16625;53.624;10.106;2023-11-19T11:21:22;22.43;;;4.73;;
4921;SDS011;16625;53.624;10.106;2023-11-19T11:24:10;24.80;;;4.93;;
4921;SDS011;16625;53.624;10.106;2023-11-19T11:26:55;19.40;;;4.37;;
4921;SDS011;16625;53.624;10.106;2023-11-19T11:29:46;47.77;;;6.20;;
4921;SDS011;16625;53.624;10.106;2023-11-19T11:32:25;27.20;;;4.90;;
4921;SDS011;16625;53.624;10.106;2023-11-19T11:35:03;21.00;;;7.03;;
4921;SDS011;16625;53.624;10.106;2023-11-19T11:37:44;42.23;;;6.97;;
4921;SDS011;16625;53.624;10.106;2023-11-19T11:40:17;44.03;;;9.97;;
4921;SDS011;16625;53.624;10.106;2023-11-19T11:42:48;32.40;;;5.10;;
4921;SDS011;16625;53.624;10.106;2023-11-19T11:45:17;48.27;;;5.80;;
4921;SDS011;16625;53.624;10.106;2023-11-19T11:51:03;29.60;;;5.93;;
4921;SDS011;16625;53.624;10.106;2023-11-19T11:53:32;28.13;;;6.80;;
4921;SDS011;16625;53.624;10.106;2023-11-19T11:56:02;20.67;;;5.63;;
4921;SDS011;16625;53.624;10.106;2023-11-19T11:58:31;35.87;;;7.00;;
4921;SDS011;16625;53.624;10.106;2023-11-19T12:01:01;30.20;;;6.40;;
4921;SDS011;16625;53.624;10.106;2023-11-19T12:03:30;26.07;;;6.13;;
4921;SDS011;16625;53.624;10.106;2023-11-19T12:05:58;27.07;;;5.10;;
4921;SDS011;16625;53.624;10.106;2023-11-19T12:08:25;34.60;;;5.93;;
4921;SDS011;16625;53.624;10.106;2023-11-19T12:10:55;33.93;;;6.07;;
4921;SDS011;16625;53.624;10.106;2023-11-19T12:13:24;39.03;;;6.30;;
4921;SDS011;16625;53.624;10.106;2023-11-19T12:16:08;29.50;;;5.30;;
4921;SDS011;16625;53.624;10.106;2023-11-19T12:18:35;34.80;;;6.27;;
4921;SDS011;16625;53.624;10.106;2023-11-19T12:21:04;31.27;;;5.93;;
4921;SDS011;16625;53.624;10.106;2023-11-19T12:23:34;24.30;;;6.17;;
4921;SDS011;16625;53.624;10.106;2023-11-19T12:26:16;34.07;;;6.90;;
4921;SDS011;16625;53.624;10.106;2023-11-19T12:28:57;36.10;;;7.00;;
4921;SDS011;16625;53.624;10.106;2023-11-19T12:31:25;31.47;;;5.37;;
4921;SDS011;16625;53.624;10.106;2023-11-19T12:33:52;21.53;;;5.93;;
4921;SDS011;16625;53.624;10.106;2023-11-19T12:36:20;26.83;;;5.83;;
4921;SDS011;16625;53.624;10.106;2023-11-19T12:38:47;28.63;;;5.80;;
4921;SDS011;16625;53.624;10.106;2023-11-19T12:41:17;39.20;;;6.20;;
4921;SDS011;16625;53.624;10.106;2023-11-19T12:43:47;29.60;;;5.77;;
4921;SDS011;16625;53.624;10.106;2023-11-19T12:46:18;29.47;;;6.90;;
4921;SDS011;16625;53.624;10.106;2023-11-19T12:48:45;37.50;;;6.90;;
4921;SDS011;16625;53.624;10.106;2023-11-19T12:51:12;25.77;;;4.77;;
4921;SDS011;16625;53.624;10.106;2023-11-19T12:53:47;26.33;;;5.03;;
4921;SDS011;16625;53.624;10.106;2023-11-19T12:56:16;16.43;;;4.90;;
4921;SDS011;16625;53.624;10.106;2023-11-19T12:58:43;35.83;;;6.13;;
4921;SDS011;16625;53.624;10.106;2023-11-19T13:01:10;25.20;;;5.80;;
4921;SDS011;16625;53.624;10.106;2023-11-19T13:03:43;23.37;;;3.93;;
4921;SDS011;16625;53.624;10.106;2023-11-19T13:06:11;37.87;;;7.03;;
4921;SDS011;16625;53.624;10.106;2023-11-19T13:08:39;31.20;;;5.80;;
4921;SDS011;16625;53.624;10.106;2023-11-19T13:11:07;38.63;;;5.70;;
4921;SDS011;16625;53.624;10.106;2023-11-19T13:16:25;26.60;;;7.90;;
4921;SDS011;16625;53.624;10.106;2023-11-19T13:18:53;33.77;;;5.80;;
4921;SDS011;16625;53.624;10.106;2023-11-19T13:21:20;30.40;;;6.63;;
4921;SDS011;16625;53.624;10.106;2023-11-19T13:23:47;33.23;;;5.53;;
4921;SDS011;16625;53.624;10.106;2023-11-19T13:26:15;32.67;;;5.40;;
4921;SDS011;16625;53.624;10.106;2023-11-19T13:28:42;29.73;;;6.00;;
4921;SDS011;16625;53.624;10.106;2023-11-19T13:31:10;22.10;;;4.47;;
4921;SDS011;16625;53.624;10.106;2023-11-19T13:33:37;31.63;;;6.00;;
4921;SDS011;16625;53.624;10.106;2023-11-19T13:36:05;26.00;;;6.20;;
4921;SDS011;16625;53.624;10.106;2023-11-19T13:38:32;20.23;;;5.07;;
4921;SDS011;16625;53.624;10.106;2023-11-19T13:41:00;19.97;;;4.60;;
4921;SDS011;16625;53.624;10.106;2023-11-19T13:43:27;43.33;;;6.97;;
4921;SDS011;16625;53.624;10.106;2023-11-19T13:45:54;31.47;;;6.43;;
4921;SDS011;16625;53.624;10.106;2023-11-19T13:48:23;20.30;;;7.73;;
4921;SDS011;16625;53.624;10.106;2023-11-19T13:50:51;34.40;;;7.40;;
4921;SDS011;16625;53.624;10.106;2023-11-19T13:53:18;28.67;;;5.93;;
4921;SDS011;16625;53.624;10.106;2023-11-19T13:55:46;33.20;;;6.50;;
4921;SDS011;16625;53.624;10.106;2023-11-19T13:58:13;32.87;;;7.03;;
4921;SDS011;16625;53.624;10.106;2023-11-19T14:00:41;37.37;;;5.23;;
4921;SDS011;16625;53.624;10.106;2023-11-19T14:03:08;30.27;;;4.97;;
4921;SDS011;16625;53.624;10.106;2023-11-19T14:05:37;57.53;;;6.20;;
4921;SDS011;16625;53.624;10.106;2023-11-19T14:08:06;26.90;;;4.87;;
4921;SDS011;16625;53.624;10.106;2023-11-19T14:10:36;26.40;;;6.20;;
4921;SDS011;16625;53.624;10.106;2023-11-19T14:13:05;32.40;;;6.27;;
4921;SDS011;16625;53.624;10.106;2023-11-19T14:15:32;31.47;;;5.37;;
4921;SDS011;16625;53.624;10.106;2023-11-19T14:18:00;28.57;;;6.03;;
4921;SDS011;16625;53.624;10.106;2023-11-19T14:20:27;38.57;;;7.70;;
4921;SDS011;16625;53.624;10.106;2023-11-19T14:22:56;39.70;;;6.37;;
4921;SDS011;16625;53.624;10.106;2023-11-19T14:25:23;20.50;;;4.67;;
4921;SDS011;16625;53.624;10.106;2023-11-19T14:27:51;28.07;;;5.33;;
4921;SDS011;16625;53.624;10.106;2023-11-19T14:30:18;27.30;;;6.17;;
4921;SDS011;16625;53.624;10.106;2023-11-19T14:32:45;21.73;;;5.30;;
4921;SDS011;16625;53.624;10.106;2023-11-19T14:35:13;22.63;;;5.83;;
4921;SDS011;16625;53.624;10.106;2023-11-19T14:37:40;26.73;;;5.73;;
4921;SDS011;16625;53.624;10.106;2023-11-19T14:40:10;27.07;;;5.37;;
4921;SDS011;16625;53.624;10.106;2023-11-19T14:42:37;26.23;;;5.57;;
4921;SDS011;16625;53.624;10.106;2023-11-19T14:45:05;26.53;;;5.03;;
4921;SDS011;16625;53.624;10.106;2023-11-19T14:47:37;27.60;;;5.10;;
4921;SDS011;16625;53.624;10.106;2023-11-19T14:50:04;21.80;;;4.00;;
4921;SDS011;16625;53.624;10.106;2023-11-19T14:52:34;30.33;;;5.87;;
4921;SDS011;16625;53.624;10.106;2023-11-19T14:55:01;9.00;;;3.43;;